sensor_id;sensor_type;location;lat;lon;timestamp;P1;durP1;ratioP1;P2;durP2;ratioP2
51578;SDS011;47998;53.242;6.386;2023-04-25T00:01:16;16.60;;;4.07;;
51578;SDS011;47998;53.242;6.386;2023-04-25T00:03:42;20.50;;;4.05;;
51578;SDS011;47998;53.242;6.386;2023-04-25T00:06:08;18.85;;;3.35;;
51578;SDS011;47998;53.242;6.386;2023-04-25T00:08:34;21.70;;;3.47;;
51578;SDS011;47998;53.242;6.386;2023-04-25T00:11:00;21.42;;;3.30;;
51578;SDS011;47998;53.242;6.386;2023-04-25T00:13:26;21.08;;;3.17;;
51578;SDS011;47998;53.242;6.386;2023-04-25T00:15:52;18.80;;;3.90;;
51578;SDS011;47998;53.242;6.386;2023-04-25T00:20:53;17.42;;;2.83;;
51578;SDS011;47998;53.242;6.386;2023-04-25T00:23:19;15.73;;;3.03;;
51578;SDS011;47998;53.242;6.386;2023-04-25T00:25:49;20.13;;;3.35;;
51578;SDS011;47998;53.242;6.386;2023-04-25T00:28:16;19.98;;;2.25;;
51578;SDS011;47998;53.242;6.386;2023-04-25T00:30:42;13.70;;;2.35;;
51578;SDS011;47998;53.242;6.386;2023-04-25T00:33:08;16.00;;;2.95;;
51578;SDS011;47998;53.242;6.386;2023-04-25T00:35:35;11.88;;;2.22;;
51578;SDS011;47998;53.242;6.386;2023-04-25T00:38:01;15.02;;;2.78;;
51578;SDS011;47998;53.242;6.386;2023-04-25T00:40:27;16.75;;;2.72;;
51578;SDS011;47998;53.242;6.386;2023-04-25T00:42:53;21.13;;;2.90;;
51578;SDS011;47998;53.242;6.386;2023-04-25T00:45:19;15.05;;;2.80;;
51578;SDS011;47998;53.242;6.386;2023-04-25T00:47:45;13.07;;;2.28;;
51578;SDS011;47998;53.242;6.386;2023-04-25T00:50:12;12.80;;;2.72;;
51578;SDS011;47998;53.242;6.386;2023-04-25T00:52:43;15.32;;;2.75;;
51578;SDS011;47998;53.242;6.386;2023-04-25T00:55:09;16.75;;;3.05;;
51578;SDS011;47998;53.242;6.386;2023-04-25T00:57:36;14.20;;;2.13;;
51578;SDS011;47998;53.242;6.386;2023-04-25T01:00:03;16.40;;;3.08;;
51578;SDS011;47998;53.242;6.386;2023-04-25T01:02:31;14.50;;;2.30;;
51578;SDS011;47998;53.242;6.386;2023-04-25T01:05:01;20.33;;;2.83;;
51578;SDS011;47998;53.242;6.386;2023-04-25T01:07:27;11.38;;;2.25;;
51578;SDS011;47998;53.242;6.386;2023-04-25T01:09:53;18.88;;;2.63;;
51578;SDS011;47998;53.242;6.386;2023-04-25T01:12:20;19.65;;;2.78;;
51578;SDS011;47998;53.242;6.386;2023-04-25T01:14:46;12.52;;;2.30;;
51578;SDS011;47998;53.242;6.386;2023-04-25T01:17:12;18.90;;;3.70;;
51578;SDS011;47998;53.242;6.386;2023-04-25T01:19:38;13.90;;;2.10;;
51578;SDS011;47998;53.242;6.386;2023-04-25T01:22:04;13.60;;;2.50;;
51578;SDS011;47998;53.242;6.386;2023-04-25T01:24:33;17.73;;;2.38;;
51578;SDS011;47998;53.242;6.386;2023-04-25T01:27:02;18.98;;;3.10;;
51578;SDS011;47998;53.242;6.386;2023-04-25T01:29:28;19.67;;;3.30;;
51578;SDS011;47998;53.242;6.386;2023-04-25T01:31:55;17.35;;;3.20;;
51578;SDS011;47998;53.242;6.386;2023-04-25T01:34:21;19.52;;;2.97;;
51578;SDS011;47998;53.242;6.386;2023-04-25T01:36:49;18.17;;;3.15;;
51578;SDS011;47998;53.242;6.386;2023-04-25T01:39:16;20.85;;;2.75;;
51578;SDS011;47998;53.242;6.386;2023-04-25T01:41:42;9.85;;;2.35;;
51578;SDS011;47998;53.242;6.386;2023-04-25T01:44:08;9.73;;;2.45;;
51578;SDS011;47998;53.242;6.386;2023-04-25T01:46:34;11.10;;;2.17;;
51578;SDS011;47998;53.242;6.386;2023-04-25T01:49:00;11.60;;;2.75;;
51578;SDS011;47998;53.242;6.386;2023-04-25T01:51:26;12.35;;;1.92;;
51578;SDS011;47998;53.242;6.386;2023-04-25T01:53:52;19.48;;;2.72;;
51578;SDS011;47998;53.242;6.386;2023-04-25T01:56:18;13.05;;;2.17;;
51578;SDS011;47998;53.242;6.386;2023-04-25T01:58:45;19.55;;;2.45;;
51578;SDS011;47998;53.242;6.386;2023-04-25T02:01:11;16.92;;;2.33;;
51578;SDS011;47998;53.242;6.386;2023-04-25T02:03:37;12.95;;;2.42;;
51578;SDS011;47998;53.242;6.386;2023-04-25T02:06:04;14.88;;;2.08;;
51578;SDS011;47998;53.242;6.386;2023-04-25T02:08:30;15.40;;;2.10;;
51578;SDS011;47998;53.242;6.386;2023-04-25T02:10:56;16.52;;;2.90;;
51578;SDS011;47998;53.242;6.386;2023-04-25T02:13:22;15.13;;;2.58;;
51578;SDS011;47998;53.242;6.386;2023-04-25T02:15:48;15.02;;;2.05;;
51578;SDS011;47998;53.242;6.386;2023-04-25T02:18:13;18.20;;;2.40;;
51578;SDS011;47998;53.242;6.386;2023-04-25T02:20:41;17.63;;;2.40;;
51578;SDS011;47998;53.242;6.386;2023-04-25T02:23:07;17.67;;;2.90;;
51578;SDS011;47998;53.242;6.386;2023-04-25T02:25:33;16.83;;;2.63;;
51578;SDS011;47998;53.242;6.386;2023-04-25T02:27:59;23.95;;;4.05;;
51578;SDS011;47998;53.242;6.386;2023-04-25T02:30:25;26.15;;;3.15;;
51578;SDS011;47998;53.242;6.386;2023-04-25T02:32:51;14.40;;;1.67;;
51578;SDS011;47998;53.242;6.386;2023-04-25T02:35:16;15.88;;;2.78;;
51578;SDS011;47998;53.242;6.386;2023-04-25T02:37:42;13.18;;;2.67;;
51578;SDS011;47998;53.242;6.386;2023-04-25T02:40:08;16.48;;;2.35;;
51578;SDS011;47998;53.242;6.386;2023-04-25T02:42:34;12.73;;;2.03;;
51578;SDS011;47998;53.242;6.386;2023-04-25T02:45:00;17.55;;;2.97;;
51578;SDS011;47998;53.242;6.386;2023-04-25T02:47:27;13.23;;;2.65;;
51578;SDS011;47998;53.242;6.386;2023-04-25T02:49:53;17.02;;;2.58;;
51578;SDS011;47998;53.242;6.386;2023-04-25T02:52:19;15.10;;;2.47;;
51578;SDS011;47998;53.242;6.386;2023-04-25T02:54:44;10.30;;;1.65;;
51578;SDS011;47998;53.242;6.386;2023-04-25T02:57:10;10.75;;;2.08;;
51578;SDS011;47998;53.242;6.386;2023-04-25T02:59:36;7.57;;;1.58;;
51578;SDS011;47998;53.242;6.386;2023-04-25T03:02:01;10.25;;;2.95;;
51578;SDS011;47998;53.242;6.386;2023-04-25T03:04:27;7.43;;;1.45;;
51578;SDS011;47998;53.242;6.386;2023-04-25T03:06:53;9.88;;;1.83;;
51578;SDS011;47998;53.242;6.386;2023-04-25T03:09:19;24.17;;;3.08;;
51578;SDS011;47998;53.242;6.386;2023-04-25T03:11:45;12.25;;;2.40;;
51578;SDS011;47998;53.242;6.386;2023-04-25T03:14:11;12.07;;;1.50;;
51578;SDS011;47998;53.242;6.386;2023-04-25T03:16:37;13.65;;;1.83;;
51578;SDS011;47998;53.242;6.386;2023-04-25T03:19:03;16.75;;;2.35;;
51578;SDS011;47998;53.242;6.386;2023-04-25T03:21:30;15.20;;;2.17;;
51578;SDS011;47998;53.242;6.386;2023-04-25T03:24:01;12.27;;;2.17;;
51578;SDS011;47998;53.242;6.386;2023-04-25T03:26:27;16.27;;;2.25;;
51578;SDS011;47998;53.242;6.386;2023-04-25T03:28:53;14.55;;;2.75;;
51578;SDS011;47998;53.242;6.386;2023-04-25T03:31:19;11.13;;;1.92;;
51578;SDS011;47998;53.242;6.386;2023-04-25T03:33:45;10.75;;;1.95;;
51578;SDS011;47998;53.242;6.386;2023-04-25T03:36:11;10.90;;;1.70;;
51578;SDS011;47998;53.242;6.386;2023-04-25T03:38:36;13.57;;;2.22;;
51578;SDS011;47998;53.242;6.386;2023-04-25T03:41:02;9.90;;;2.13;;
51578;SDS011;47998;53.242;6.386;2023-04-25T03:43:28;14.82;;;2.00;;
51578;SDS011;47998;53.242;6.386;2023-04-25T03:45:53;13.25;;;2.13;;
51578;SDS011;47998;53.242;6.386;2023-04-25T03:48:19;11.85;;;2.30;;
51578;SDS011;47998;53.242;6.386;2023-04-25T03:50:49;13.70;;;2.15;;
51578;SDS011;47998;53.242;6.386;2023-04-25T03:53:15;11.50;;;2.63;;
51578;SDS011;47998;53.242;6.386;2023-04-25T03:55:41;19.70;;;3.22;;
51578;SDS011;47998;53.242;6.386;2023-04-25T03:58:07;13.10;;;1.98;;
51578;SDS011;47998;53.242;6.386;2023-04-25T04:00:34;19.00;;;3.28;;
51578;SDS011;47998;53.242;6.386;2023-04-25T04:03:00;16.35;;;2.35;;
51578;SDS011;47998;53.242;6.386;2023-04-25T04:05:26;16.40;;;2.85;;
51578;SDS011;47998;53.242;6.386;2023-04-25T04:07:52;16.83;;;1.98;;
51578;SDS011;47998;53.242;6.386;2023-04-25T04:10:18;14.00;;;2.97;;
51578;SDS011;47998;53.242;6.386;2023-04-25T04:12:44;14.27;;;1.75;;
51578;SDS011;47998;53.242;6.386;2023-04-25T04:15:10;10.98;;;2.15;;
51578;SDS011;47998;53.242;6.386;2023-04-25T04:17:37;15.32;;;2.25;;
51578;SDS011;47998;53.242;6.386;2023-04-25T04:20:02;15.13;;;2.83;;
51578;SDS011;47998;53.242;6.386;2023-04-25T04:22:29;17.08;;;2.28;;
51578;SDS011;47998;53.242;6.386;2023-04-25T04:24:55;10.85;;;1.63;;
51578;SDS011;47998;53.242;6.386;2023-04-25T04:27:21;16.63;;;2.78;;
51578;SDS011;47998;53.242;6.386;2023-04-25T04:29:48;12.60;;;1.88;;
51578;SDS011;47998;53.242;6.386;2023-04-25T04:32:14;21.25;;;2.28;;
51578;SDS011;47998;53.242;6.386;2023-04-25T04:34:40;15.90;;;2.77;;
51578;SDS011;47998;53.242;6.386;2023-04-25T04:37:06;14.67;;;2.23;;
51578;SDS011;47998;53.242;6.386;2023-04-25T04:39:33;20.83;;;2.90;;
51578;SDS011;47998;53.242;6.386;2023-04-25T04:41:59;21.07;;;2.73;;
51578;SDS011;47998;53.242;6.386;2023-04-25T04:44:26;12.47;;;1.90;;
51578;SDS011;47998;53.242;6.386;2023-04-25T04:46:53;9.40;;;2.00;;
51578;SDS011;47998;53.242;6.386;2023-04-25T04:49:21;15.33;;;2.43;;
51578;SDS011;47998;53.242;6.386;2023-04-25T04:51:46;12.75;;;2.00;;
51578;SDS011;47998;53.242;6.386;2023-04-25T04:54:14;13.97;;;1.97;;
51578;SDS011;47998;53.242;6.386;2023-04-25T04:56:40;12.25;;;1.88;;
51578;SDS011;47998;53.242;6.386;2023-04-25T04:59:07;9.13;;;1.83;;
51578;SDS011;47998;53.242;6.386;2023-04-25T05:01:32;19.95;;;2.55;;
51578;SDS011;47998;53.242;6.386;2023-04-25T05:04:01;12.52;;;2.60;;
51578;SDS011;47998;53.242;6.386;2023-04-25T05:06:27;10.60;;;1.77;;
51578;SDS011;47998;53.242;6.386;2023-04-25T05:08:56;9.38;;;1.90;;
51578;SDS011;47998;53.242;6.386;2023-04-25T05:11:23;7.53;;;1.50;;
51578;SDS011;47998;53.242;6.386;2023-04-25T05:13:52;11.45;;;2.42;;
51578;SDS011;47998;53.242;6.386;2023-04-25T05:16:18;13.75;;;2.00;;
51578;SDS011;47998;53.242;6.386;2023-04-25T05:18:44;7.55;;;1.67;;
51578;SDS011;47998;53.242;6.386;2023-04-25T05:21:10;9.98;;;1.50;;
51578;SDS011;47998;53.242;6.386;2023-04-25T05:23:36;13.00;;;2.17;;
51578;SDS011;47998;53.242;6.386;2023-04-25T05:26:02;7.35;;;1.23;;
51578;SDS011;47998;53.242;6.386;2023-04-25T05:28:28;11.35;;;1.20;;
51578;SDS011;47998;53.242;6.386;2023-04-25T05:30:53;11.82;;;1.85;;
51578;SDS011;47998;53.242;6.386;2023-04-25T05:33:19;9.98;;;2.50;;
51578;SDS011;47998;53.242;6.386;2023-04-25T05:35:45;15.73;;;2.20;;
51578;SDS011;47998;53.242;6.386;2023-04-25T05:38:11;10.25;;;1.33;;
51578;SDS011;47998;53.242;6.386;2023-04-25T05:40:36;16.10;;;1.60;;
51578;SDS011;47998;53.242;6.386;2023-04-25T05:43:02;10.98;;;2.28;;
51578;SDS011;47998;53.242;6.386;2023-04-25T05:45:28;8.93;;;1.63;;
51578;SDS011;47998;53.242;6.386;2023-04-25T05:47:54;6.93;;;1.40;;
51578;SDS011;47998;53.242;6.386;2023-04-25T05:50:20;11.68;;;1.50;;
51578;SDS011;47998;53.242;6.386;2023-04-25T05:52:46;7.40;;;1.23;;
51578;SDS011;47998;53.242;6.386;2023-04-25T05:55:11;9.98;;;1.85;;
51578;SDS011;47998;53.242;6.386;2023-04-25T05:57:38;14.90;;;1.70;;
51578;SDS011;47998;53.242;6.386;2023-04-25T06:00:07;16.73;;;1.83;;
51578;SDS011;47998;53.242;6.386;2023-04-25T06:02:37;8.63;;;1.20;;
51578;SDS011;47998;53.242;6.386;2023-04-25T06:05:02;12.10;;;1.38;;
51578;SDS011;47998;53.242;6.386;2023-04-25T06:07:29;10.95;;;1.70;;
51578;SDS011;47998;53.242;6.386;2023-04-25T06:09:55;8.63;;;1.45;;
51578;SDS011;47998;53.242;6.386;2023-04-25T06:12:21;10.32;;;1.88;;
51578;SDS011;47998;53.242;6.386;2023-04-25T06:14:49;9.68;;;2.17;;
51578;SDS011;47998;53.242;6.386;2023-04-25T06:17:14;7.65;;;1.35;;
51578;SDS011;47998;53.242;6.386;2023-04-25T06:19:40;14.95;;;2.58;;
51578;SDS011;47998;53.242;6.386;2023-04-25T06:22:06;9.80;;;1.40;;
51578;SDS011;47998;53.242;6.386;2023-04-25T06:24:32;11.23;;;1.70;;
51578;SDS011;47998;53.242;6.386;2023-04-25T06:27:01;9.65;;;1.73;;
51578;SDS011;47998;53.242;6.386;2023-04-25T06:29:27;7.63;;;1.40;;
51578;SDS011;47998;53.242;6.386;2023-04-25T06:31:53;15.25;;;1.10;;
51578;SDS011;47998;53.242;6.386;2023-04-25T06:34:19;5.55;;;1.35;;
51578;SDS011;47998;53.242;6.386;2023-04-25T06:36:45;4.93;;;0.80;;
51578;SDS011;47998;53.242;6.386;2023-04-25T06:39:11;10.23;;;1.83;;
51578;SDS011;47998;53.242;6.386;2023-04-25T06:41:37;7.28;;;1.20;;
51578;SDS011;47998;53.242;6.386;2023-04-25T06:44:02;11.90;;;1.63;;
51578;SDS011;47998;53.242;6.386;2023-04-25T06:46:28;9.55;;;1.38;;
51578;SDS011;47998;53.242;6.386;2023-04-25T06:48:56;8.50;;;1.58;;
51578;SDS011;47998;53.242;6.386;2023-04-25T06:51:21;10.65;;;1.40;;
51578;SDS011;47998;53.242;6.386;2023-04-25T06:53:49;9.90;;;1.40;;
51578;SDS011;47998;53.242;6.386;2023-04-25T06:56:15;8.07;;;1.00;;
51578;SDS011;47998;53.242;6.386;2023-04-25T06:58:41;8.50;;;0.85;;
51578;SDS011;47998;53.242;6.386;2023-04-25T07:01:07;10.60;;;1.85;;
51578;SDS011;47998;53.242;6.386;2023-04-25T07:03:32;9.00;;;1.50;;
51578;SDS011;47998;53.242;6.386;2023-04-25T07:05:58;15.85;;;1.55;;
51578;SDS011;47998;53.242;6.386;2023-04-25T07:08:24;8.93;;;1.15;;
51578;SDS011;47998;53.242;6.386;2023-04-25T07:10:50;7.57;;;1.40;;
51578;SDS011;47998;53.242;6.386;2023-04-25T07:13:16;9.02;;;1.40;;
51578;SDS011;47998;53.242;6.386;2023-04-25T07:15:42;8.90;;;1.60;;
51578;SDS011;47998;53.242;6.386;2023-04-25T07:18:08;15.02;;;1.65;;
51578;SDS011;47998;53.242;6.386;2023-04-25T07:20:34;15.23;;;2.25;;
51578;SDS011;47998;53.242;6.386;2023-04-25T07:23:00;11.23;;;1.77;;
51578;SDS011;47998;53.242;6.386;2023-04-25T07:25:26;8.48;;;1.27;;
51578;SDS011;47998;53.242;6.386;2023-04-25T07:27:51;8.80;;;0.98;;
51578;SDS011;47998;53.242;6.386;2023-04-25T07:30:17;11.18;;;1.23;;
51578;SDS011;47998;53.242;6.386;2023-04-25T07:32:43;4.47;;;0.65;;
51578;SDS011;47998;53.242;6.386;2023-04-25T07:35:08;2.75;;;0.45;;
51578;SDS011;47998;53.242;6.386;2023-04-25T07:37:35;7.80;;;0.70;;
51578;SDS011;47998;53.242;6.386;2023-04-25T07:40:01;7.38;;;0.95;;
51578;SDS011;47998;53.242;6.386;2023-04-25T07:42:29;3.97;;;0.68;;
51578;SDS011;47998;53.242;6.386;2023-04-25T07:44:55;5.25;;;0.95;;
51578;SDS011;47998;53.242;6.386;2023-04-25T07:47:21;4.43;;;0.70;;
51578;SDS011;47998;53.242;6.386;2023-04-25T07:49:46;7.20;;;1.75;;
51578;SDS011;47998;53.242;6.386;2023-04-25T07:52:12;6.63;;;0.70;;
51578;SDS011;47998;53.242;6.386;2023-04-25T07:54:38;6.65;;;1.25;;
51578;SDS011;47998;53.242;6.386;2023-04-25T07:57:04;8.07;;;1.33;;
51578;SDS011;47998;53.242;6.386;2023-04-25T07:59:31;4.20;;;0.80;;
51578;SDS011;47998;53.242;6.386;2023-04-25T08:01:57;4.07;;;0.50;;
51578;SDS011;47998;53.242;6.386;2023-04-25T08:04:24;4.95;;;0.75;;
51578;SDS011;47998;53.242;6.386;2023-04-25T08:06:50;7.63;;;1.33;;
51578;SDS011;47998;53.242;6.386;2023-04-25T08:09:18;4.38;;;0.80;;
51578;SDS011;47998;53.242;6.386;2023-04-25T08:11:43;4.10;;;0.60;;
51578;SDS011;47998;53.242;6.386;2023-04-25T08:14:09;2.22;;;0.52;;
51578;SDS011;47998;53.242;6.386;2023-04-25T08:16:35;3.75;;;0.80;;
51578;SDS011;47998;53.242;6.386;2023-04-25T08:19:01;3.80;;;1.10;;
51578;SDS011;47998;53.242;6.386;2023-04-25T08:21:27;5.25;;;0.80;;
51578;SDS011;47998;53.242;6.386;2023-04-25T08:23:53;3.70;;;0.70;;
51578;SDS011;47998;53.242;6.386;2023-04-25T08:26:18;8.57;;;0.45;;
51578;SDS011;47998;53.242;6.386;2023-04-25T08:28:45;3.85;;;1.10;;
51578;SDS011;47998;53.242;6.386;2023-04-25T08:31:11;8.50;;;1.15;;
51578;SDS011;47998;53.242;6.386;2023-04-25T08:33:37;3.95;;;1.27;;
51578;SDS011;47998;53.242;6.386;2023-04-25T08:36:03;4.65;;;0.50;;
51578;SDS011;47998;53.242;6.386;2023-04-25T08:38:29;5.90;;;0.52;;
51578;SDS011;47998;53.242;6.386;2023-04-25T08:40:54;3.03;;;0.73;;
51578;SDS011;47998;53.242;6.386;2023-04-25T08:43:24;3.38;;;0.57;;
51578;SDS011;47998;53.242;6.386;2023-04-25T08:45:50;8.68;;;1.63;;
51578;SDS011;47998;53.242;6.386;2023-04-25T08:48:19;3.63;;;0.68;;
51578;SDS011;47998;53.242;6.386;2023-04-25T08:53:16;7.60;;;1.40;;
51578;SDS011;47998;53.242;6.386;2023-04-25T08:55:45;6.97;;;1.00;;
51578;SDS011;47998;53.242;6.386;2023-04-25T08:58:12;4.15;;;0.80;;
51578;SDS011;47998;53.242;6.386;2023-04-25T09:00:38;9.70;;;2.20;;
51578;SDS011;47998;53.242;6.386;2023-04-25T09:03:04;7.43;;;1.23;;
51578;SDS011;47998;53.242;6.386;2023-04-25T09:05:31;5.45;;;1.02;;
51578;SDS011;47998;53.242;6.386;2023-04-25T09:07:59;8.32;;;1.45;;
51578;SDS011;47998;53.242;6.386;2023-04-25T09:10:26;6.15;;;1.10;;
51578;SDS011;47998;53.242;6.386;2023-04-25T09:13:02;9.48;;;1.70;;
51578;SDS011;47998;53.242;6.386;2023-04-25T09:15:38;7.15;;;2.38;;
51578;SDS011;47998;53.242;6.386;2023-04-25T09:18:11;11.18;;;1.83;;
51578;SDS011;47998;53.242;6.386;2023-04-25T09:20:46;10.93;;;2.03;;
51578;SDS011;47998;53.242;6.386;2023-04-25T09:23:12;15.32;;;3.25;;
51578;SDS011;47998;53.242;6.386;2023-04-25T09:25:39;13.82;;;1.65;;
51578;SDS011;47998;53.242;6.386;2023-04-25T09:28:05;8.30;;;1.13;;
51578;SDS011;47998;53.242;6.386;2023-04-25T09:30:35;5.78;;;1.20;;
51578;SDS011;47998;53.242;6.386;2023-04-25T09:33:05;5.50;;;1.05;;
51578;SDS011;47998;53.242;6.386;2023-04-25T09:35:42;7.38;;;1.33;;
51578;SDS011;47998;53.242;6.386;2023-04-25T09:40:42;8.77;;;1.98;;
51578;SDS011;47998;53.242;6.386;2023-04-25T09:43:09;14.77;;;2.03;;
51578;SDS011;47998;53.242;6.386;2023-04-25T09:45:45;14.65;;;2.20;;
51578;SDS011;47998;53.242;6.386;2023-04-25T09:48:16;11.40;;;1.60;;
51578;SDS011;47998;53.242;6.386;2023-04-25T09:50:44;8.18;;;1.63;;
51578;SDS011;47998;53.242;6.386;2023-04-25T09:53:10;9.32;;;1.40;;
51578;SDS011;47998;53.242;6.386;2023-04-25T09:55:36;10.70;;;1.85;;
51578;SDS011;47998;53.242;6.386;2023-04-25T09:58:05;6.80;;;1.40;;
51578;SDS011;47998;53.242;6.386;2023-04-25T10:00:32;6.90;;;1.88;;
51578;SDS011;47998;53.242;6.386;2023-04-25T10:03:02;12.77;;;1.90;;
51578;SDS011;47998;53.242;6.386;2023-04-25T10:05:31;10.10;;;1.73;;
51578;SDS011;47998;53.242;6.386;2023-04-25T10:08:02;8.40;;;1.48;;
51578;SDS011;47998;53.242;6.386;2023-04-25T10:10:31;10.02;;;1.38;;
51578;SDS011;47998;53.242;6.386;2023-04-25T10:13:02;7.65;;;1.38;;
51578;SDS011;47998;53.242;6.386;2023-04-25T10:15:34;7.10;;;1.50;;
51578;SDS011;47998;53.242;6.386;2023-04-25T10:18:01;8.75;;;1.67;;
51578;SDS011;47998;53.242;6.386;2023-04-25T10:20:28;7.90;;;1.55;;
51578;SDS011;47998;53.242;6.386;2023-04-25T10:22:55;14.68;;;1.90;;
51578;SDS011;47998;53.242;6.386;2023-04-25T10:25:28;8.45;;;1.38;;
51578;SDS011;47998;53.242;6.386;2023-04-25T10:27:54;12.23;;;1.38;;
51578;SDS011;47998;53.242;6.386;2023-04-25T10:30:20;10.45;;;1.83;;
51578;SDS011;47998;53.242;6.386;2023-04-25T10:32:46;10.85;;;2.28;;
51578;SDS011;47998;53.242;6.386;2023-04-25T10:35:17;13.30;;;2.53;;
51578;SDS011;47998;53.242;6.386;2023-04-25T10:38:00;10.27;;;1.83;;
51578;SDS011;47998;53.242;6.386;2023-04-25T10:40:35;7.35;;;1.58;;
51578;SDS011;47998;53.242;6.386;2023-04-25T10:48:51;7.75;;;1.17;;
51578;SDS011;47998;53.242;6.386;2023-04-25T10:51:18;8.68;;;1.75;;
51578;SDS011;47998;53.242;6.386;2023-04-25T10:54:07;7.75;;;1.05;;
51578;SDS011;47998;53.242;6.386;2023-04-25T10:56:36;11.75;;;1.38;;
51578;SDS011;47998;53.242;6.386;2023-04-25T11:01:39;7.15;;;0.90;;
51578;SDS011;47998;53.242;6.386;2023-04-25T11:04:06;9.43;;;1.50;;
51578;SDS011;47998;53.242;6.386;2023-04-25T11:09:47;6.75;;;1.05;;
51578;SDS011;47998;53.242;6.386;2023-04-25T11:12:14;7.63;;;1.17;;
51578;SDS011;47998;53.242;6.386;2023-04-25T11:14:41;4.45;;;0.90;;
51578;SDS011;47998;53.242;6.386;2023-04-25T11:17:07;8.88;;;1.50;;
51578;SDS011;47998;53.242;6.386;2023-04-25T11:19:33;9.50;;;1.27;;
51578;SDS011;47998;53.242;6.386;2023-04-25T11:21:59;5.57;;;1.45;;
51578;SDS011;47998;53.242;6.386;2023-04-25T11:24:29;5.65;;;1.33;;
51578;SDS011;47998;53.242;6.386;2023-04-25T11:26:58;6.93;;;1.40;;
51578;SDS011;47998;53.242;6.386;2023-04-25T11:29:28;6.28;;;1.13;;
51578;SDS011;47998;53.242;6.386;2023-04-25T11:31:54;3.95;;;1.05;;
51578;SDS011;47998;53.242;6.386;2023-04-25T11:34:22;8.80;;;1.00;;
51578;SDS011;47998;53.242;6.386;2023-04-25T11:37:02;9.77;;;1.55;;
51578;SDS011;47998;53.242;6.386;2023-04-25T11:39:29;6.90;;;1.52;;
51578;SDS011;47998;53.242;6.386;2023-04-25T11:41:55;5.88;;;1.23;;
51578;SDS011;47998;53.242;6.386;2023-04-25T11:44:21;10.10;;;1.52;;
51578;SDS011;47998;53.242;6.386;2023-04-25T11:46:47;8.10;;;1.27;;
51578;SDS011;47998;53.242;6.386;2023-04-25T11:49:13;7.07;;;1.42;;
51578;SDS011;47998;53.242;6.386;2023-04-25T11:51:44;7.65;;;1.40;;
51578;SDS011;47998;53.242;6.386;2023-04-25T11:54:13;8.60;;;1.27;;
51578;SDS011;47998;53.242;6.386;2023-04-25T11:56:45;11.30;;;1.48;;
51578;SDS011;47998;53.242;6.386;2023-04-25T11:59:11;4.80;;;1.05;;
51578;SDS011;47998;53.242;6.386;2023-04-25T12:01:38;10.48;;;1.80;;
51578;SDS011;47998;53.242;6.386;2023-04-25T12:06:45;5.35;;;1.02;;
51578;SDS011;47998;53.242;6.386;2023-04-25T12:09:28;11.70;;;1.15;;
51578;SDS011;47998;53.242;6.386;2023-04-25T12:11:56;8.57;;;1.60;;
51578;SDS011;47998;53.242;6.386;2023-04-25T12:14:24;8.80;;;1.48;;
51578;SDS011;47998;53.242;6.386;2023-04-25T12:16:52;10.35;;;1.20;;
51578;SDS011;47998;53.242;6.386;2023-04-25T12:19:20;6.13;;;1.38;;
51578;SDS011;47998;53.242;6.386;2023-04-25T12:21:46;11.15;;;2.08;;
51578;SDS011;47998;53.242;6.386;2023-04-25T12:24:13;7.70;;;1.20;;
51578;SDS011;47998;53.242;6.386;2023-04-25T12:29:30;12.23;;;2.13;;
51578;SDS011;47998;53.242;6.386;2023-04-25T12:31:57;8.25;;;1.02;;
51578;SDS011;47998;53.242;6.386;2023-04-25T12:34:23;7.05;;;1.02;;
51578;SDS011;47998;53.242;6.386;2023-04-25T12:36:50;10.48;;;1.98;;
51578;SDS011;47998;53.242;6.386;2023-04-25T12:39:20;8.50;;;1.73;;
51578;SDS011;47998;53.242;6.386;2023-04-25T12:41:48;8.73;;;1.75;;
51578;SDS011;47998;53.242;6.386;2023-04-25T12:44:14;7.63;;;1.38;;
51578;SDS011;47998;53.242;6.386;2023-04-25T12:46:40;9.70;;;1.85;;
51578;SDS011;47998;53.242;6.386;2023-04-25T12:49:06;10.93;;;2.55;;
51578;SDS011;47998;53.242;6.386;2023-04-25T12:51:33;7.60;;;1.77;;
51578;SDS011;47998;53.242;6.386;2023-04-25T12:54:00;14.70;;;1.92;;
51578;SDS011;47998;53.242;6.386;2023-04-25T12:56:27;6.40;;;1.48;;
51578;SDS011;47998;53.242;6.386;2023-04-25T12:58:53;8.40;;;1.88;;
51578;SDS011;47998;53.242;6.386;2023-04-25T13:01:19;10.05;;;1.73;;
51578;SDS011;47998;53.242;6.386;2023-04-25T13:03:45;10.73;;;1.73;;
51578;SDS011;47998;53.242;6.386;2023-04-25T13:06:12;9.00;;;1.63;;
51578;SDS011;47998;53.242;6.386;2023-04-25T13:08:38;7.55;;;1.38;;
51578;SDS011;47998;53.242;6.386;2023-04-25T13:11:05;10.55;;;1.50;;
51578;SDS011;47998;53.242;6.386;2023-04-25T13:13:31;9.75;;;1.60;;
51578;SDS011;47998;53.242;6.386;2023-04-25T13:15:57;10.43;;;1.67;;
51578;SDS011;47998;53.242;6.386;2023-04-25T13:18:23;7.45;;;1.67;;
51578;SDS011;47998;53.242;6.386;2023-04-25T13:20:52;7.38;;;1.40;;
51578;SDS011;47998;53.242;6.386;2023-04-25T13:23:19;8.75;;;2.10;;
51578;SDS011;47998;53.242;6.386;2023-04-25T13:29:26;4.05;;;0.90;;
51578;SDS011;47998;53.242;6.386;2023-04-25T13:31:52;5.43;;;0.80;;
51578;SDS011;47998;53.242;6.386;2023-04-25T13:34:17;6.70;;;1.10;;
51578;SDS011;47998;53.242;6.386;2023-04-25T13:36:43;8.48;;;1.17;;
51578;SDS011;47998;53.242;6.386;2023-04-25T13:39:10;6.53;;;1.13;;
51578;SDS011;47998;53.242;6.386;2023-04-25T13:41:36;4.70;;;1.20;;
51578;SDS011;47998;53.242;6.386;2023-04-25T13:44:02;6.45;;;1.30;;
51578;SDS011;47998;53.242;6.386;2023-04-25T13:46:27;9.35;;;1.98;;
51578;SDS011;47998;53.242;6.386;2023-04-25T13:48:53;10.00;;;1.80;;
51578;SDS011;47998;53.242;6.386;2023-04-25T13:51:19;6.82;;;1.20;;
51578;SDS011;47998;53.242;6.386;2023-04-25T13:53:45;5.90;;;1.15;;
51578;SDS011;47998;53.242;6.386;2023-04-25T13:56:11;12.85;;;2.00;;
51578;SDS011;47998;53.242;6.386;2023-04-25T13:58:37;11.32;;;2.10;;
51578;SDS011;47998;53.242;6.386;2023-04-25T14:01:03;9.13;;;1.65;;
51578;SDS011;47998;53.242;6.386;2023-04-25T14:03:29;13.52;;;2.10;;
51578;SDS011;47998;53.242;6.386;2023-04-25T14:05:55;11.40;;;1.50;;
51578;SDS011;47998;53.242;6.386;2023-04-25T14:08:23;7.60;;;1.70;;
51578;SDS011;47998;53.242;6.386;2023-04-25T14:10:49;4.95;;;1.23;;
51578;SDS011;47998;53.242;6.386;2023-04-25T14:13:15;7.68;;;1.08;;
51578;SDS011;47998;53.242;6.386;2023-04-25T14:15:41;11.35;;;1.45;;
51578;SDS011;47998;53.242;6.386;2023-04-25T14:18:06;6.30;;;1.35;;
51578;SDS011;47998;53.242;6.386;2023-04-25T14:20:32;9.52;;;1.10;;
51578;SDS011;47998;53.242;6.386;2023-04-25T14:22:59;6.57;;;1.27;;
51578;SDS011;47998;53.242;6.386;2023-04-25T14:25:25;7.07;;;1.00;;
51578;SDS011;47998;53.242;6.386;2023-04-25T14:27:51;9.52;;;2.08;;
51578;SDS011;47998;53.242;6.386;2023-04-25T14:30:17;9.40;;;1.33;;
51578;SDS011;47998;53.242;6.386;2023-04-25T14:32:44;10.20;;;1.65;;
51578;SDS011;47998;53.242;6.386;2023-04-25T14:35:10;11.35;;;1.75;;
51578;SDS011;47998;53.242;6.386;2023-04-25T14:37:36;11.80;;;1.73;;
51578;SDS011;47998;53.242;6.386;2023-04-25T14:40:02;14.35;;;2.35;;
51578;SDS011;47998;53.242;6.386;2023-04-25T14:42:29;9.93;;;1.83;;
51578;SDS011;47998;53.242;6.386;2023-04-25T14:44:55;4.75;;;1.20;;
51578;SDS011;47998;53.242;6.386;2023-04-25T14:47:21;11.13;;;2.05;;
51578;SDS011;47998;53.242;6.386;2023-04-25T14:49:46;8.65;;;1.33;;
51578;SDS011;47998;53.242;6.386;2023-04-25T14:52:18;8.57;;;1.30;;
51578;SDS011;47998;53.242;6.386;2023-04-25T14:54:45;7.80;;;1.73;;
51578;SDS011;47998;53.242;6.386;2023-04-25T14:57:11;8.68;;;1.48;;
51578;SDS011;47998;53.242;6.386;2023-04-25T14:59:38;8.30;;;2.00;;
51578;SDS011;47998;53.242;6.386;2023-04-25T15:02:04;6.90;;;1.20;;
51578;SDS011;47998;53.242;6.386;2023-04-25T15:04:30;12.73;;;1.80;;
51578;SDS011;47998;53.242;6.386;2023-04-25T15:06:55;8.98;;;1.50;;